Time;durP1;ratioP1;P1;durP2;ratioP2;P2;SDS_P1;SDS_P2;PMS_P1;PMS_P2;Temp;Humidity;BMP_temperature;BMP_pressure;BME280_temperature;BME280_humidity;BME280_pressure;Samples;Min_cycle;Max_cycle;Signal;HPM_P1;HPM_P2
2023/11/06 00:00:42;;;;;;;2.50;0.93;;;;;;;9.11;71.72;94847.44;5007218;28;20243;-66
2023/11/06 00:03:07;;;;;;;3.83;1.47;;;;;;;9.10;71.93;94840.53;5006801;28;20230;-67
2023/11/06 00:05:35;;;;;;;1.80;0.90;;;;;;;9.13;71.89;94848.19;5006580;28;20172;-68
2023/11/06 00:08:01;;;;;;;2.20;1.23;;;;;;;9.09;71.73;94844.06;5007015;28;20920;-67
2023/11/06 00:10:28;;;;;;;2.90;0.90;;;;;;;9.03;72.15;94853.16;5007407;28;20421;-67
2023/11/06 00:12:53;;;;;;;2.73;1.23;;;;;;;9.11;71.93;94861.34;5007248;28;20291;-68
2023/11/06 00:15:20;;;;;;;2.33;1.10;;;;;;;9.06;72.01;94857.34;5007020;28;20537;-67
2023/11/06 00:17:46;;;;;;;1.83;0.90;;;;;;;9.08;71.86;94858.94;5007178;28;20196;-67
2023/11/06 00:20:12;;;;;;;1.23;0.87;;;;;;;9.11;71.90;94863.13;5006973;28;20495;-68
2023/11/06 00:22:38;;;;;;;3.63;1.30;;;;;;;9.04;71.73;94862.66;5007066;28;20258;-68
2023/11/06 00:25:06;;;;;;;1.60;1.13;;;;;;;9.02;72.12;94868.94;5006676;28;20796;-67
2023/11/06 00:27:33;;;;;;;1.97;1.07;;;;;;;9.00;72.25;94861.19;5005887;28;20279;-67
2023/11/06 00:29:58;;;;;;;2.40;1.23;;;;;;;8.98;72.56;94868.31;5006724;28;20414;-67
2023/11/06 00:32:23;;;;;;;2.67;1.17;;;;;;;9.01;72.61;94875.94;5010334;28;20422;-67
2023/11/06 00:34:49;;;;;;;2.80;1.10;;;;;;;9.01;71.89;94868.09;5024660;28;20183;-68
2023/11/06 00:37:14;;;;;;;2.90;1.30;;;;;;;8.95;72.68;94878.94;5026157;28;20179;-68
2023/11/06 00:39:42;;;;;;;1.87;0.90;;;;;;;8.99;72.61;94875.19;5026085;28;20218;-68
2023/11/06 00:42:07;;;;;;;2.87;0.93;;;;;;;8.94;72.22;94882.50;5026168;28;20179;-67
2023/11/06 00:44:33;;;;;;;3.20;1.13;;;;;;;8.96;72.77;94885.03;5025891;28;20418;-68
2023/11/06 00:46:58;;;;;;;2.47;1.30;;;;;;;8.99;72.46;94885.66;5026240;28;20171;-67
2023/11/06 00:49:25;;;;;;;2.03;0.93;;;;;;;8.97;72.80;94895.38;5024981;28;20206;-68
2023/11/06 00:51:50;;;;;;;1.60;1.20;;;;;;;8.97;72.43;94895.38;5025918;28;20180;-67
2023/11/06 00:54:16;;;;;;;2.03;1.00;;;;;;;8.89;72.99;94905.50;5025778;28;20465;-67
2023/11/06 00:56:41;;;;;;;5.30;1.10;;;;;;;8.91;72.89;94901.00;5026134;28;20198;-68
2023/11/06 00:59:06;;;;;;;2.60;1.20;;;;;;;8.97;72.87;94905.84;5025817;28;20202;-67
2023/11/06 01:01:32;;;;;;;2.90;1.43;;;;;;;8.85;72.92;94909.22;5025816;28;20171;-67
2023/11/06 01:03:57;;;;;;;3.03;1.40;;;;;;;8.90;72.88;94913.25;5025516;28;20178;-67
2023/11/06 01:06:24;;;;;;;3.53;1.20;;;;;;;8.88;72.65;94912.50;5025681;28;20203;-67
2023/11/06 01:08:50;;;;;;;4.03;1.20;;;;;;;8.82;73.21;94920.72;5025815;28;20566;-67
2023/11/06 01:11:15;;;;;;;4.80;1.30;;;;;;;8.88;73.39;94924.72;5026355;28;20402;-67
2023/11/06 01:13:41;;;;;;;2.40;1.20;;;;;;;8.87;73.25;94921.28;5025729;28;20211;-67
2023/11/06 01:16:07;;;;;;;4.60;1.30;;;;;;;8.93;72.85;94930.53;5025526;28;20314;-67
2023/11/06 01:18:32;;;;;;;2.87;1.17;;;;;;;8.85;73.67;94924.91;5025853;28;20206;-68
2023/11/06 01:20:57;;;;;;;3.40;1.20;;;;;;;8.83;73.76;94940.69;5025774;28;20179;-67
2023/11/06 01:23:23;;;;;;;3.10;1.23;;;;;;;8.85;73.59;94943.22;5025686;28;20585;-67
2023/11/06 01:25:49;;;;;;;2.00;1.70;;;;;;;8.77;74.01;94948.09;5025256;28;20264;-67
2023/11/06 01:28:14;;;;;;;2.60;1.30;;;;;;;8.79;73.52;94946.22;5025547;28;20261;-67
2023/11/06 01:30:39;;;;;;;3.40;1.30;;;;;;;8.79;73.65;94959.31;5025751;28;20178;-67
2023/11/06 01:33:05;;;;;;;1.30;0.90;;;;;;;8.78;73.64;94966.28;5016248;28;20231;-67
2023/11/06 01:35:32;;;;;;;2.03;1.50;;;;;;;8.83;73.12;94963.41;5005758;28;20918;-67
2023/11/06 01:37:58;;;;;;;1.80;1.03;;;;;;;8.81;73.15;94965.25;5006104;28;20203;-67
2023/11/06 01:40:24;;;;;;;4.50;1.20;;;;;;;8.73;73.75;94970.97;5009534;28;20952;-67
2023/11/06 01:42:53;;;;;;;1.87;1.23;;;;;;;8.76;73.77;94960.31;5009465;28;20407;-67
2023/11/06 01:45:18;;;;;;;2.47;1.20;;;;;;;8.77;73.60;94969.84;5010360;28;20206;-66
2023/11/06 01:47:44;;;;;;;4.43;1.37;;;;;;;8.80;73.54;94972.28;5012864;28;20497;-67
2023/11/06 01:50:11;;;;;;;1.27;0.93;;;;;;;8.71;73.32;94985.06;5009772;28;20172;-68
2023/11/06 01:52:37;;;;;;;3.83;1.07;;;;;;;8.84;73.18;94979.00;5009036;28;20184;-68
2023/11/06 01:55:03;;;;;;;2.40;1.27;;;;;;;8.84;72.54;94972.94;5008965;28;20427;-68
2023/11/06 01:57:28;;;;;;;1.30;1.00;;;;;;;8.72;73.77;94977.13;5009628;28;20411;-68
2023/11/06 01:59:55;;;;;;;3.70;1.10;;;;;;;8.67;73.28;94985.25;5009341;28;20730;-67
2023/11/06 02:02:22;;;;;;;2.07;1.17;;;;;;;8.72;73.43;94979.75;5009125;28;20184;-67
2023/11/06 02:04:49;;;;;;;4.23;1.00;;;;;;;8.74;73.36;94990.09;5008958;28;20411;-68
2023/11/06 02:07:17;;;;;;;1.80;1.20;;;;;;;8.76;73.06;94983.00;5009213;28;20415;-68
2023/11/06 02:09:43;;;;;;;7.90;1.23;;;;;;;8.70;73.16;94979.00;5008834;28;20435;-67
2023/11/06 02:12:09;;;;;;;7.13;1.77;;;;;;;8.70;72.97;94979.00;5009212;28;20477;-68
2023/11/06 02:14:55;;;;;;;1.97;1.00;;;;;;;8.71;72.78;94979.84;5009396;28;20986;-66
2023/11/06 02:17:21;;;;;;;3.80;1.30;;;;;;;8.84;72.75;94986.88;5009089;28;20407;-67
2023/11/06 02:19:48;;;;;;;3.73;1.20;;;;;;;8.74;72.55;94984.88;5008859;28;21208;-68
2023/11/06 02:22:18;;;;;;;6.30;1.10;;;;;;;8.60;73.24;94991.78;5009234;28;20415;-67
2023/11/06 02:24:44;;;;;;;1.87;1.00;;;;;;;8.63;73.33;94998.59;5008751;28;20964;-67
2023/11/06 02:27:10;;;;;;;4.30;1.10;;;;;;;8.66;73.25;95001.84;5009005;28;21007;-68
2023/11/06 02:29:35;;;;;;;4.37;1.10;;;;;;;8.63;72.94;94990.75;5009198;28;20438;-67
2023/11/06 02:32:02;;;;;;;2.23;1.00;;;;;;;8.71;72.86;94992.91;5009705;28;20670;-67
2023/11/06 02:34:27;;;;;;;1.97;0.90;;;;;;;8.76;72.33;94991.69;5028174;28;20690;-67
2023/11/06 02:36:53;;;;;;;1.60;1.00;;;;;;;8.73;72.52;94998.91;5028547;28;20540;-67
2023/11/06 02:39:19;;;;;;;12.43;1.40;;;;;;;8.69;72.65;94999.09;5028016;28;20195;-66
2023/11/06 02:41:45;;;;;;;6.20;1.27;;;;;;;8.67;72.10;95005.34;5028191;28;20414;-68
2023/11/06 02:44:11;;;;;;;2.07;1.00;;;;;;;8.66;72.14;95004.47;5027893;28;20172;-67
2023/11/06 02:46:37;;;;;;;4.33;1.17;;;;;;;8.83;71.91;95007.88;5028263;28;20974;-67
2023/11/06 02:49:02;;;;;;;2.20;1.17;;;;;;;8.73;72.42;95006.75;5028077;28;20470;-67
2023/11/06 02:51:28;;;;;;;4.83;1.00;;;;;;;8.70;72.40;95010.38;5027549;28;20187;-67
2023/11/06 02:53:54;;;;;;;2.47;1.10;;;;;;;8.67;72.45;95002.72;5027955;28;20330;-67
2023/11/06 02:56:19;;;;;;;2.97;0.97;;;;;;;8.63;72.31;95006.44;5027956;28;20233;-67
2023/11/06 02:58:44;;;;;;;2.60;1.10;;;;;;;8.74;72.52;95011.91;5027777;28;20248;-67
2023/11/06 03:01:10;;;;;;;1.67;1.10;;;;;;;8.70;72.28;95015.63;5027699;28;20172;-67
2023/11/06 03:03:35;;;;;;;2.50;0.93;;;;;;;8.72;72.24;95023.34;5028132;28;20171;-67
2023/11/06 03:06:01;;;;;;;1.87;0.80;;;;;;;8.75;71.68;95031.88;5027735;28;20180;-67
2023/11/06 03:08:26;;;;;;;3.33;1.30;;;;;;;8.71;72.34;95017.28;5027702;28;20299;-67
2023/11/06 03:10:52;;;;;;;1.27;0.90;;;;;;;8.68;72.38;95034.00;5027797;28;20646;-67
2023/11/06 03:13:19;;;;;;;1.60;0.90;;;;;;;8.76;72.12;95035.31;5027864;28;20206;-67
2023/11/06 03:15:45;;;;;;;5.03;1.47;;;;;;;8.81;71.34;95035.88;5027361;28;20594;-67
2023/11/06 03:18:10;;;;;;;1.90;0.90;;;;;;;8.73;72.18;95038.97;5027741;28;20437;-67
2023/11/06 03:20:36;;;;;;;2.80;1.20;;;;;;;8.71;72.14;95053.06;5027917;28;20647;-67
2023/11/06 03:23:01;;;;;;;2.80;0.70;;;;;;;8.71;71.74;95056.50;5028148;28;20176;-67
2023/11/06 03:25:27;;;;;;;1.53;1.00;;;;;;;8.71;71.90;95063.53;5028249;28;20179;-67
2023/11/06 03:27:52;;;;;;;1.83;0.90;;;;;;;8.75;72.34;95059.81;5038607;28;20430;-68
2023/11/06 03:30:18;;;;;;;2.50;1.17;;;;;;;8.75;72.15;95060.63;5045170;28;20227;-67
2023/11/06 03:32:43;;;;;;;1.93;0.90;;;;;;;8.74;72.25;95058.09;5045455;28;20210;-67
2023/11/06 03:35:08;;;;;;;1.70;0.93;;;;;;;8.65;72.33;95073.41;5030974;28;20176;-68
2023/11/06 03:37:34;;;;;;;14.07;2.70;;;;;;;8.65;72.74;95081.25;5027789;28;20218;-67
2023/11/06 03:39:59;;;;;;;4.93;1.43;;;;;;;8.66;72.27;95082.09;5027204;28;20678;-66
2023/11/06 03:42:25;;;;;;;2.73;1.40;;;;;;;8.66;72.63;95076.88;5027661;28;20172;-67
2023/11/06 03:44:50;;;;;;;2.83;1.50;;;;;;;8.61;73.08;95084.13;5027134;28;20262;-66
2023/11/06 03:47:16;;;;;;;8.00;1.80;;;;;;;8.65;72.63;95091.72;5027422;28;20223;-66
2023/11/06 03:49:41;;;;;;;2.07;1.10;;;;;;;8.62;72.97;95091.03;5026771;28;20292;-67
2023/11/06 03:52:11;;;;;;;1.90;1.10;;;;;;;8.64;72.99;95079.56;5026978;28;20175;-67
2023/11/06 03:54:38;;;;;;;1.40;1.10;;;;;;;8.64;72.45;95089.19;5026811;28;20211;-67
2023/11/06 03:57:03;;;;;;;1.53;1.00;;;;;;;8.57;73.06;95093.06;5026747;28;20414;-67
2023/11/06 03:59:28;;;;;;;4.10;1.00;;;;;;;8.55;73.04;95100.16;5026871;28;20431;-67
2023/11/06 04:01:54;;;;;;;1.10;0.93;;;;;;;8.50;73.46;95094.34;5026701;28;20176;-66
2023/11/06 04:04:19;;;;;;;2.80;1.40;;;;;;;8.47;73.27;95105.84;5026221;28;20167;-67
2023/11/06 04:06:45;;;;;;;1.33;1.10;;;;;;;8.47;73.24;95093.59;5027031;28;20171;-68
2023/11/06 04:09:10;;;;;;;2.37;1.33;;;;;;;8.52;73.21;95089.88;5026943;28;20294;-68
2023/11/06 04:11:35;;;;;;;2.87;1.10;;;;;;;8.51;72.82;95093.44;5027097;28;20199;-67
2023/11/06 04:14:01;;;;;;;2.40;1.13;;;;;;;8.48;73.00;95095.28;5026633;28;20290;-67
2023/11/06 04:16:26;;;;;;;2.30;1.10;;;;;;;8.51;72.94;95099.50;5026996;28;20764;-67
2023/11/06 04:18:52;;;;;;;3.10;1.60;;;;;;;8.48;73.62;95107.53;5026576;28;20594;-67
2023/11/06 04:21:17;;;;;;;4.83;1.30;;;;;;;8.63;73.16;95111.88;5025171;28;20184;-68
2023/11/06 04:23:43;;;;;;;3.83;1.17;;;;;;;8.59;73.21;95112.13;5026371;28;20176;-67
2023/11/06 04:26:08;;;;;;;9.43;1.67;;;;;;;8.53;73.80;95115.97;5026329;28;20558;-67
2023/11/06 04:28:34;;;;;;;3.20;0.87;;;;;;;8.54;73.30;95115.00;5026845;28;20248;-67
2023/11/06 04:30:59;;;;;;;4.13;1.77;;;;;;;8.48;73.99;95120.59;5027110;28;20195;-66
2023/11/06 04:33:24;;;;;;;3.40;1.23;;;;;;;8.58;74.00;95113.91;5015450;28;20196;-67
2023/11/06 04:35:50;;;;;;;9.00;1.83;;;;;;;8.50;74.13;95117.88;5006459;28;20176;-67
2023/11/06 04:38:16;;;;;;;3.20;1.27;;;;;;;8.59;74.12;95106.91;5006562;28;20300;-66
2023/11/06 04:40:41;;;;;;;3.37;1.00;;;;;;;8.60;74.03;95124.31;5006584;28;20180;-67
2023/11/06 04:43:06;;;;;;;2.70;1.10;;;;;;;8.62;74.00;95112.81;5006337;28;20196;-67
2023/11/06 04:45:32;;;;;;;2.77;1.07;;;;;;;8.59;73.60;95112.97;5006104;28;20187;-67
2023/11/06 04:47:57;;;;;;;4.17;1.13;;;;;;;8.69;73.63;95114.16;5006118;28;20284;-67
2023/11/06 04:50:23;;;;;;;2.40;1.20;;;;;;;8.68;73.38;95115.06;5006249;28;20215;-67
2023/11/06 04:52:48;;;;;;;2.50;0.90;;;;;;;8.65;73.68;95135.34;5006539;28;20208;-67
2023/11/06 04:55:14;;;;;;;7.33;1.10;;;;;;;8.69;73.32;95137.69;5006014;28;20183;-67
2023/11/06 04:57:39;;;;;;;5.07;0.80;;;;;;;8.66;73.55;95137.00;5006314;28;20213;-67
2023/11/06 05:00:10;;;;;;;1.67;0.83;;;;;;;8.63;74.43;95134.56;5006231;28;20176;-67
2023/11/06 05:02:35;;;;;;;3.83;1.33;;;;;;;8.67;74.53;95142.16;5006193;28;20187;-67
2023/11/06 05:05:01;;;;;;;3.63;1.13;;;;;;;8.64;75.13;95131.84;5005900;28;20415;-67
2023/11/06 05:07:27;;;;;;;1.53;0.87;;;;;;;8.64;75.18;95134.47;5006375;28;20703;-68
2023/11/06 05:09:53;;;;;;;1.93;1.10;;;;;;;8.72;74.67;95143.66;5006098;28;20532;-68
2023/11/06 05:12:18;;;;;;;3.23;1.50;;;;;;;8.74;74.91;95139.19;5006170;28;20473;-68
2023/11/06 05:14:43;;;;;;;3.90;1.23;;;;;;;8.67;75.23;95141.34;5009003;28;20207;-67
2023/11/06 05:17:10;;;;;;;4.00;1.20;;;;;;;8.65;75.72;95144.03;5010350;28;20176;-67
2023/11/06 05:19:41;;;;;;;3.03;1.43;;;;;;;8.63;75.37;95145.88;5010011;28;20236;-65
2023/11/06 05:22:09;;;;;;;2.40;1.10;;;;;;;8.66;75.84;95153.53;5009979;28;20411;-68
2023/11/06 05:24:37;;;;;;;3.07;1.10;;;;;;;8.56;76.02;95154.16;5010033;28;20414;-67
2023/11/06 05:27:03;;;;;;;2.53;1.40;;;;;;;8.61;76.01;95147.72;5009719;28;20481;-68
2023/11/06 05:29:28;;;;;;;1.43;1.10;;;;;;;8.70;75.50;95156.84;5009852;28;20439;-67
2023/11/06 05:31:54;;;;;;;2.90;1.50;;;;;;;8.69;76.01;95148.16;5009601;28;20259;-67
2023/11/06 05:34:19;;;;;;;3.63;1.63;;;;;;;8.69;75.88;95157.75;5028876;28;20911;-67
2023/11/06 05:36:45;;;;;;;3.47;1.40;;;;;;;8.58;76.84;95163.59;5029694;28;20179;-68
2023/11/06 05:39:11;;;;;;;3.57;1.40;;;;;;;8.58;76.88;95165.38;5029364;28;20200;-67
2023/11/06 05:41:37;;;;;;;7.80;2.60;;;;;;;8.57;77.21;95167.13;5029340;28;20190;-67
2023/11/06 05:44:03;;;;;;;13.43;1.80;;;;;;;8.59;76.72;95173.13;5029286;28;20485;-67
2023/11/06 05:46:28;;;;;;;5.97;1.73;;;;;;;8.54;77.12;95162.06;5029218;28;20504;-67
2023/11/06 05:48:54;;;;;;;6.57;1.77;;;;;;;8.58;76.79;95176.69;5029545;28;20195;-67
2023/11/06 05:51:19;;;;;;;6.90;1.70;;;;;;;8.63;76.21;95172.03;5029906;28;20172;-68
2023/11/06 05:53:44;;;;;;;10.53;1.70;;;;;;;8.60;76.48;95177.44;5029837;28;20210;-67
2023/11/06 05:56:10;;;;;;;2.63;1.50;;;;;;;8.49;76.50;95192.88;5029333;28;20284;-68
2023/11/06 05:58:35;;;;;;;4.70;1.90;;;;;;;8.61;76.56;95186.13;5029287;28;20255;-68
2023/11/06 06:01:01;;;;;;;10.37;1.40;;;;;;;8.56;76.07;95182.91;5029601;28;20995;-67
2023/11/06 06:03:27;;;;;;;9.60;1.40;;;;;;;8.57;76.28;95185.44;5029354;28;20168;-67
2023/11/06 06:05:52;;;;;;;10.80;1.80;;;;;;;8.51;76.14;95198.84;5029257;28;20832;-68
2023/11/06 06:08:19;;;;;;;5.67;1.47;;;;;;;8.49;76.81;95200.72;5028860;28;20196;-67
2023/11/06 06:10:45;;;;;;;4.00;1.70;;;;;;;8.57;75.93;95208.13;5028837;28;20225;-68
2023/11/06 06:13:11;;;;;;;3.23;1.33;;;;;;;8.55;76.13;95216.06;5029142;28;20472;-67
2023/11/06 06:15:36;;;;;;;4.17;2.40;;;;;;;8.55;76.42;95218.69;5028954;28;20651;-68
2023/11/06 06:18:01;;;;;;;2.70;2.10;;;;;;;8.53;76.06;95219.66;5029306;28;20247;-68
2023/11/06 06:20:27;;;;;;;5.70;1.53;;;;;;;8.56;75.75;95211.69;5028899;28;20188;-68
2023/11/06 06:22:53;;;;;;;6.30;2.00;;;;;;;8.55;76.65;95229.16;5028413;28;20168;-68
2023/11/06 06:25:18;;;;;;;1.70;1.50;;;;;;;8.76;75.52;95223.66;5027418;28;20172;-68
2023/11/06 06:27:43;;;;;;;3.83;1.50;;;;;;;9.53;72.87;95230.59;5028637;28;20185;-68
2023/11/06 06:30:11;;;;;;;7.40;2.37;;;;;;;10.04;70.73;95228.44;5028907;28;20648;-68
2023/11/06 06:32:36;;;;;;;3.97;1.30;;;;;;;10.78;68.00;95235.22;5022774;28;20169;-68
2023/11/06 06:35:05;;;;;;;10.60;2.77;;;;;;;11.39;65.33;95234.84;5008286;28;20566;-68
2023/11/06 06:37:30;;;;;;;14.13;2.57;;;;;;;12.19;62.23;95237.38;5008786;28;20420;-68
2023/11/06 06:39:56;;;;;;;3.53;1.70;;;;;;;12.61;60.42;95246.69;5008184;28;20490;-68
2023/11/06 06:42:21;;;;;;;8.93;3.20;;;;;;;13.52;58.93;95238.41;5023269;28;20594;-68
2023/11/06 06:44:46;;;;;;;3.17;1.60;;;;;;;13.72;57.13;95247.50;5006441;28;20173;-68
2023/11/06 06:47:12;;;;;;;15.77;3.90;;;;;;;13.95;56.43;95248.38;5007977;28;20231;-68
2023/11/06 06:49:40;;;;;;;5.50;2.10;;;;;;;14.55;54.67;95256.16;5008444;28;20219;-67
2023/11/06 06:52:07;;;;;;;5.43;1.90;;;;;;;15.18;53.02;95243.25;5007029;28;20434;-68
2023/11/06 06:54:32;;;;;;;13.40;2.93;;;;;;;15.55;52.20;95256.16;5008113;28;20785;-68
2023/11/06 06:56:58;;;;;;;14.73;2.93;;;;;;;15.64;51.13;95256.22;5008086;28;20427;-68
2023/11/06 06:59:26;;;;;;;6.40;1.83;;;;;;;15.97;50.14;95250.91;5007726;28;20200;-68
2023/11/06 07:01:51;;;;;;;5.97;2.40;;;;;;;16.31;49.20;95248.91;5007791;28;20263;-68
2023/11/06 07:04:17;;;;;;;5.80;1.60;;;;;;;16.52;48.14;95254.19;5007756;28;20565;-68
2023/11/06 07:06:42;;;;;;;4.47;2.20;;;;;;;16.89;47.50;95258.97;5008491;28;20635;-68
2023/11/06 07:09:08;;;;;;;11.43;1.53;;;;;;;16.96;47.01;95264.56;5008185;28;20595;-68
2023/11/06 07:11:34;;;;;;;2.90;1.43;;;;;;;17.11;46.61;95263.25;5007654;28;20180;-68
2023/11/06 07:14:00;;;;;;;2.80;1.83;;;;;;;17.30;46.33;95265.09;5007819;28;20490;-68
2023/11/06 07:16:25;;;;;;;2.13;1.30;;;;;;;17.76;44.90;95269.78;5007590;28;20176;-67
2023/11/06 07:18:50;;;;;;;3.47;1.97;;;;;;;18.05;43.95;95268.09;5007128;28;20773;-67
2023/11/06 07:21:17;;;;;;;3.57;1.80;;;;;;;18.46;43.56;95264.28;5007361;28;20187;-68
2023/11/06 07:23:44;;;;;;;2.97;1.50;;;;;;;19.67;40.48;95267.81;5007265;28;20176;-68
2023/11/06 07:26:09;;;;;;;3.23;1.50;;;;;;;18.86;41.76;95273.00;5007379;28;20411;-67
2023/11/06 07:28:35;;;;;;;3.60;1.43;;;;;;;18.79;42.03;95265.59;5007605;28;20431;-67
2023/11/06 07:31:00;;;;;;;3.80;1.73;;;;;;;19.09;41.40;95273.47;5007349;28;20176;-67
2023/11/06 07:33:26;;;;;;;4.37;1.50;;;;;;;19.45;40.38;95275.22;5019684;28;20891;-67
2023/11/06 07:35:52;;;;;;;3.30;1.93;;;;;;;19.61;40.01;95271.91;5026916;28;20209;-68
2023/11/06 07:38:17;;;;;;;1.70;1.10;;;;;;;19.61;39.96;95273.75;5026871;28;20195;-68
2023/11/06 07:40:43;;;;;;;4.70;3.27;;;;;;;19.79;39.64;95261.28;5026949;28;20412;-68
2023/11/06 07:43:08;;;;;;;2.50;1.50;;;;;;;20.70;37.82;95255.72;5026723;28;20251;-67
2023/11/06 07:45:34;;;;;;;3.17;1.17;;;;;;;20.16;38.24;95259.47;5026436;28;20186;-67
2023/11/06 07:48:02;;;;;;;3.43;1.40;;;;;;;20.41;37.86;95266.66;5026507;28;20194;-68
2023/11/06 07:50:32;;;;;;;3.73;1.10;;;;;;;20.74;37.29;95272.25;5026537;28;20171;-68
2023/11/06 07:52:57;;;;;;;15.40;2.37;;;;;;;20.84;37.27;95272.97;5026777;28;20457;-68
2023/11/06 07:55:23;;;;;;;6.27;1.37;;;;;;;21.04;36.67;95270.88;5026499;28;21016;-67
2023/11/06 07:57:49;;;;;;;14.67;3.07;;;;;;;20.78;37.32;95273.56;5026619;28;20553;-68
2023/11/06 08:00:15;;;;;;;10.47;2.80;;;;;;;21.40;36.00;95278.72;5026678;28;20238;-68
2023/11/06 08:02:41;;;;;;;9.77;4.13;;;;;;;21.39;35.80;95278.88;5026599;28;20456;-68
2023/11/06 08:05:08;;;;;;;3.20;1.73;;;;;;;21.59;35.56;95277.66;5026062;28;20414;-68
2023/11/06 08:07:43;;;;;;;42.10;3.63;;;;;;;21.60;35.53;95281.97;5024885;28;20198;-68
2023/11/06 08:10:09;;;;;;;6.00;1.60;;;;;;;21.84;35.33;95285.69;5026302;28;20550;-68
2023/11/06 08:12:35;;;;;;;5.93;1.20;;;;;;;22.07;34.97;95284.06;5026596;28;20401;-67
2023/11/06 08:15:02;;;;;;;5.37;1.33;;;;;;;22.42;33.86;95290.13;5026124;28;21276;-67
2023/11/06 08:17:28;;;;;;;4.20;1.50;;;;;;;21.93;34.95;95296.22;5026405;28;20610;-68
2023/11/06 08:19:53;;;;;;;2.47;1.57;;;;;;;22.17;34.38;95295.44;5025960;28;20433;-68
2023/11/06 08:22:21;;;;;;;5.20;1.57;;;;;;;22.54;33.70;95295.97;5026507;28;20190;-68
2023/11/06 08:24:46;;;;;;;6.10;1.60;;;;;;;22.49;33.70;95303.63;5025976;28;20171;-68
2023/11/06 08:27:12;;;;;;;9.43;1.80;;;;;;;22.58;33.54;95297.28;5026100;28;20947;-68
2023/11/06 08:29:42;;;;;;;3.33;1.20;;;;;;;22.51;33.41;95304.31;5025905;28;20218;-68
2023/11/06 08:32:14;;;;;;;8.17;2.53;;;;;;;22.62;33.19;95295.97;5024306;28;20244;-67
2023/11/06 08:34:40;;;;;;;9.33;1.50;;;;;;;22.58;33.32;95297.28;5006062;28;20483;-68
2023/11/06 08:37:06;;;;;;;9.80;1.60;;;;;;;22.80;33.10;95293.94;5006189;28;20502;-67
2023/11/06 08:39:31;;;;;;;27.50;4.40;;;;;;;22.71;33.37;95296.78;5005975;28;20423;-66
2023/11/06 08:41:57;;;;;;;38.43;6.90;;;;;;;22.54;33.41;95290.63;5006277;28;20199;-68
2023/11/06 08:44:25;;;;;;;9.97;1.87;;;;;;;22.50;33.64;95299.97;5005778;28;20172;-68
2023/11/06 08:46:50;;;;;;;6.90;1.77;;;;;;;21.78;34.30;95304.06;5006591;28;20259;-68
2023/11/06 08:49:16;;;;;;;20.93;4.03;;;;;;;21.26;35.58;95306.00;5005549;28;20530;-68
2023/11/06 08:51:41;;;;;;;14.10;2.40;;;;;;;21.09;36.24;95310.41;5006233;28;20255;-68
2023/11/06 08:54:09;;;;;;;8.17;1.90;;;;;;;20.64;37.24;95314.97;5006165;28;20231;-68
2023/11/06 08:56:35;;;;;;;9.43;2.53;;;;;;;20.76;37.20;95309.38;5006611;28;20182;-67
2023/11/06 08:59:01;;;;;;;18.60;2.23;;;;;;;20.60;37.16;95316.31;5007328;28;20431;-69
2023/11/06 09:01:26;;;;;;;17.40;2.53;;;;;;;20.26;37.40;95313.47;5007757;28;20172;-69
2023/11/06 09:03:53;;;;;;;13.50;1.87;;;;;;;20.36;37.63;95316.88;5008184;28;20457;-67
2023/11/06 09:06:20;;;;;;;10.27;1.77;;;;;;;20.09;37.72;95323.16;5008088;28;20176;-67
2023/11/06 09:08:45;;;;;;;16.37;1.93;;;;;;;20.18;37.32;95318.75;5008241;28;20430;-68
2023/11/06 09:11:10;;;;;;;15.20;2.33;;;;;;;19.80;38.52;95339.34;5009874;28;20413;-67
2023/11/06 09:13:36;;;;;;;6.67;1.87;;;;;;;19.84;38.66;95344.22;5010443;28;20210;-67
2023/11/06 09:16:04;;;;;;;5.27;1.17;;;;;;;20.08;38.29;95340.97;5009864;28;20544;-68
2023/11/06 09:18:30;;;;;;;25.63;3.57;;;;;;;20.08;38.29;95340.97;5009121;28;20279;-66
2023/11/06 09:20:55;;;;;;;13.70;1.70;;;;;;;19.87;38.24;95337.75;5009845;28;20520;-68
2023/11/06 09:23:21;;;;;;;20.70;2.90;;;;;;;19.92;38.36;95340.81;5011004;28;20893;-69
2023/11/06 09:25:47;;;;;;;19.90;2.13;;;;;;;19.50;39.05;95356.44;5012410;28;20172;-66
2023/11/06 09:28:13;;;;;;;6.10;1.30;;;;;;;19.68;38.13;95354.69;5010102;28;20206;-71
2023/11/06 09:30:38;;;;;;;18.03;2.00;;;;;;;19.39;38.95;95355.66;5008313;28;20813;-67
2023/11/06 09:33:03;;;;;;;17.10;2.20;;;;;;;19.44;39.37;95357.84;5016304;28;20231;-67
2023/11/06 09:35:29;;;;;;;18.23;2.07;;;;;;;19.58;39.05;95365.38;5027228;28;20175;-66
2023/11/06 09:37:54;;;;;;;6.83;1.63;;;;;;;19.74;38.94;95358.56;5027807;28;20923;-67
2023/11/06 09:40:22;;;;;;;4.40;1.10;;;;;;;19.42;39.61;95368.66;5027574;28;20163;-66
2023/11/06 09:42:48;;;;;;;2.37;0.93;;;;;;;19.43;39.56;95380.13;5027285;28;20241;-67
2023/11/06 09:45:15;;;;;;;2.97;1.30;;;;;;;19.31;39.66;95381.31;5026099;28;20425;-67
2023/11/06 09:47:51;;;;;;;8.57;1.10;;;;;;;19.34;39.54;95375.69;5026142;28;20402;-68
2023/11/06 09:50:20;;;;;;;6.53;1.30;;;;;;;19.12;39.96;95377.72;5026380;28;20410;-67
2023/11/06 09:52:50;;;;;;;22.97;3.57;;;;;;;19.00;39.62;95378.88;5026215;28;20414;-67
2023/11/06 09:55:19;;;;;;;14.60;1.87;;;;;;;18.74;40.26;95386.59;5026304;28;20438;-68
2023/11/06 09:57:49;;;;;;;59.63;8.03;;;;;;;18.68;40.63;95389.81;5026108;28;20973;-67
2023/11/06 10:00:16;;;;;;;37.17;5.00;;;;;;;18.66;40.71;95387.31;5027910;28;20917;-67
2023/11/06 10:02:44;;;;;;;13.83;3.90;;;;;;;18.78;40.44;95382.69;5029063;28;20426;-67
2023/11/06 10:05:15;;;;;;;44.63;5.60;;;;;;;18.60;40.67;95390.53;5029199;28;20414;-67
2023/11/06 10:07:42;;;;;;;21.73;3.50;;;;;;;18.59;40.77;95387.03;5029409;28;20422;-67
2023/11/06 10:10:18;;;;;;;34.50;5.57;;;;;;;18.73;40.94;95385.78;5028616;28;20418;-67
2023/11/06 10:12:44;;;;;;;35.47;3.70;;;;;;;18.70;40.99;95388.69;5028555;28;20402;-68
2023/11/06 10:15:11;;;;;;;34.43;4.33;;;;;;;18.60;41.06;95390.53;5028532;28;20516;-68
2023/11/06 10:17:38;;;;;;;10.80;1.30;;;;;;;18.34;40.56;95398.22;5028378;28;20411;-66
2023/11/06 10:20:16;;;;;;;12.30;2.40;;;;;;;18.34;41.26;95390.25;5028574;28;20475;-69
2023/11/06 10:22:53;;;;;;;12.73;2.00;;;;;;;18.36;40.83;95393.63;5028961;28;20420;-68
2023/11/06 10:25:29;;;;;;;31.33;4.80;;;;;;;18.10;41.37;95388.03;5028055;28;20410;-67
2023/11/06 10:27:56;;;;;;;5.37;1.60;;;;;;;18.20;41.07;95392.34;5035012;28;20752;-67
2023/11/06 10:30:22;;;;;;;12.90;2.07;;;;;;;18.24;41.12;95400.06;5028041;28;20445;-67
2023/11/06 10:32:48;;;;;;;7.20;0.93;;;;;;;18.19;40.65;95388.03;5020940;28;20412;-67
2023/11/06 10:35:15;;;;;;;3.77;1.10;;;;;;;18.24;41.25;95394.75;5008401;28;20917;-68
2023/11/06 10:37:42;;;;;;;3.40;1.20;;;;;;;18.12;41.83;95386.06;5008336;28;20184;-69
2023/11/06 10:40:17;;;;;;;2.30;0.83;;;;;;;18.22;40.59;95384.25;5008147;28;20854;-69
2023/11/06 10:42:46;;;;;;;1.83;0.90;;;;;;;18.30;40.71;95383.53;5008456;28;20498;-68
2023/11/06 10:45:14;;;;;;;6.87;1.10;;;;;;;18.15;40.87;95383.97;5007882;28;21173;-69
2023/11/06 10:48:04;;;;;;;10.40;1.33;;;;;;;18.07;40.95;95382.97;5007931;28;21009;-69
2023/11/06 10:50:30;;;;;;;3.10;1.50;;;;;;;18.21;41.64;95379.91;5007981;28;20427;-69
2023/11/06 10:52:59;;;;;;;3.00;2.03;;;;;;;18.02;41.93;95375.41;5007870;28;20419;-68
2023/11/06 10:55:26;;;;;;;2.03;0.90;;;;;;;18.05;41.51;95385.78;5008429;28;20418;-68
2023/11/06 10:57:55;;;;;;;3.87;1.40;;;;;;;18.12;41.42;95376.28;5008398;28;21088;-69
2023/11/06 11:00:23;;;;;;;15.40;2.27;;;;;;;18.19;40.71;95379.22;5008108;28;20414;-67
2023/11/06 11:02:49;;;;;;;4.03;1.50;;;;;;;17.73;41.35;95381.47;5008321;28;20506;-69
2023/11/06 11:05:17;;;;;;;8.93;1.30;;;;;;;17.05;42.23;95386.53;5007541;28;20445;-70
2023/11/06 11:07:43;;;;;;;10.40;1.47;;;;;;;17.23;42.33;95373.50;5008200;28;20830;-66
2023/11/06 11:10:12;;;;;;;1.87;0.90;;;;;;;17.24;42.28;95367.22;5008361;28;20407;-70
2023/11/06 11:12:38;;;;;;;3.90;1.53;;;;;;;17.56;42.15;95369.72;5007126;28;20468;-69
2023/11/06 11:15:05;;;;;;;5.57;1.20;;;;;;;17.27;42.47;95368.78;5007234;28;20923;-69
2023/11/06 11:17:31;;;;;;;6.70;1.43;;;;;;;17.26;42.83;95378.53;5007856;28;20779;-68
2023/11/06 11:20:02;;;;;;;16.77;2.13;;;;;;;17.26;43.11;95378.53;5008168;28;20475;-67
2023/11/06 11:22:31;;;;;;;4.07;1.20;;;;;;;16.88;43.86;95377.38;5008083;28;21137;-68
2023/11/06 11:24:59;;;;;;;4.63;1.10;;;;;;;16.89;44.04;95370.25;5007723;28;20419;-69
2023/11/06 11:27:27;;;;;;;4.40;1.50;;;;;;;16.81;44.32;95372.75;5009484;28;20508;-69
2023/11/06 11:29:54;;;;;;;17.43;2.80;;;;;;;16.84;44.15;95378.63;5007716;28;20944;-67
2023/11/06 11:32:47;;;;;;;19.23;2.80;;;;;;;17.09;44.02;95371.22;5011817;28;20422;-68